sensor_id;sensor_type;location;lat;lon;timestamp;P1;durP1;ratioP1;P2;durP2;ratioP2
6422;SDS011;3244;42.708;23.288;2023-08-20T00:00:14;8.18;;;6.05;;
6422;SDS011;3244;42.708;23.288;2023-08-20T00:02:43;7.40;;;6.15;;
6422;SDS011;3244;42.708;23.288;2023-08-20T00:05:09;7.78;;;5.78;;
6422;SDS011;3244;42.708;23.288;2023-08-20T00:07:36;6.28;;;5.65;;
6422;SDS011;3244;42.708;23.288;2023-08-20T00:10:03;6.15;;;5.70;;
6422;SDS011;3244;42.708;23.288;2023-08-20T00:12:30;6.82;;;5.88;;
6422;SDS011;3244;42.708;23.288;2023-08-20T00:14:57;6.15;;;5.60;;
6422;SDS011;3244;42.708;23.288;2023-08-20T00:17:30;7.47;;;6.72;;
6422;SDS011;3244;42.708;23.288;2023-08-20T00:19:58;7.22;;;6.38;;
6422;SDS011;3244;42.708;23.288;2023-08-20T00:22:25;6.57;;;6.03;;
6422;SDS011;3244;42.708;23.288;2023-08-20T00:24:52;8.27;;;5.75;;
6422;SDS011;3244;42.708;23.288;2023-08-20T00:27:19;7.72;;;6.95;;
6422;SDS011;3244;42.708;23.288;2023-08-20T00:29:45;7.22;;;6.72;;
6422;SDS011;3244;42.708;23.288;2023-08-20T00:32:12;7.68;;;7.10;;
6422;SDS011;3244;42.708;23.288;2023-08-20T00:34:38;7.72;;;6.88;;
6422;SDS011;3244;42.708;23.288;2023-08-20T00:37:07;8.05;;;6.25;;
6422;SDS011;3244;42.708;23.288;2023-08-20T00:39:33;7.38;;;6.68;;
6422;SDS011;3244;42.708;23.288;2023-08-20T00:41:59;6.25;;;5.75;;
6422;SDS011;3244;42.708;23.288;2023-08-20T00:44:26;9.18;;;7.13;;
6422;SDS011;3244;42.708;23.288;2023-08-20T00:46:53;7.45;;;6.95;;
6422;SDS011;3244;42.708;23.288;2023-08-20T00:49:19;8.90;;;5.15;;
6422;SDS011;3244;42.708;23.288;2023-08-20T00:51:46;6.65;;;6.18;;
6422;SDS011;3244;42.708;23.288;2023-08-20T00:54:13;11.52;;;7.40;;
6422;SDS011;3244;42.708;23.288;2023-08-20T00:56:40;8.98;;;6.30;;
6422;SDS011;3244;42.708;23.288;2023-08-20T00:59:06;7.15;;;6.55;;
6422;SDS011;3244;42.708;23.288;2023-08-20T01:01:33;6.95;;;6.35;;
6422;SDS011;3244;42.708;23.288;2023-08-20T01:03:59;10.27;;;7.50;;
6422;SDS011;3244;42.708;23.288;2023-08-20T01:06:28;6.15;;;5.75;;
6422;SDS011;3244;42.708;23.288;2023-08-20T01:09:01;12.90;;;7.45;;
6422;SDS011;3244;42.708;23.288;2023-08-20T01:11:33;7.38;;;6.75;;
6422;SDS011;3244;42.708;23.288;2023-08-20T01:14:00;7.45;;;6.18;;
6422;SDS011;3244;42.708;23.288;2023-08-20T01:16:26;6.80;;;6.30;;
6422;SDS011;3244;42.708;23.288;2023-08-20T01:18:53;6.95;;;6.35;;
6422;SDS011;3244;42.708;23.288;2023-08-20T01:21:20;8.88;;;7.00;;
6422;SDS011;3244;42.708;23.288;2023-08-20T01:26:50;7.78;;;7.07;;
6422;SDS011;3244;42.708;23.288;2023-08-20T01:29:20;9.68;;;6.65;;
6422;SDS011;3244;42.708;23.288;2023-08-20T01:31:47;7.97;;;7.30;;
6422;SDS011;3244;42.708;23.288;2023-08-20T01:34:14;7.85;;;7.15;;
6422;SDS011;3244;42.708;23.288;2023-08-20T01:36:40;7.95;;;7.28;;
6422;SDS011;3244;42.708;23.288;2023-08-20T01:39:07;7.53;;;6.93;;
6422;SDS011;3244;42.708;23.288;2023-08-20T01:41:33;8.23;;;7.20;;
6422;SDS011;3244;42.708;23.288;2023-08-20T01:43:59;9.35;;;7.47;;
6422;SDS011;3244;42.708;23.288;2023-08-20T01:46:27;8.32;;;7.47;;
6422;SDS011;3244;42.708;23.288;2023-08-20T01:48:54;8.35;;;7.65;;
6422;SDS011;3244;42.708;23.288;2023-08-20T01:51:20;7.80;;;7.10;;
6422;SDS011;3244;42.708;23.288;2023-08-20T01:53:47;7.78;;;7.32;;
6422;SDS011;3244;42.708;23.288;2023-08-20T01:56:13;7.43;;;6.72;;
6422;SDS011;3244;42.708;23.288;2023-08-20T01:58:40;12.38;;;7.95;;
6422;SDS011;3244;42.708;23.288;2023-08-20T02:01:06;8.05;;;7.40;;
6422;SDS011;3244;42.708;23.288;2023-08-20T02:03:34;7.97;;;7.38;;
6422;SDS011;3244;42.708;23.288;2023-08-20T02:06:01;8.00;;;7.03;;
6422;SDS011;3244;42.708;23.288;2023-08-20T02:08:27;8.40;;;7.22;;
6422;SDS011;3244;42.708;23.288;2023-08-20T02:10:59;7.90;;;7.30;;
6422;SDS011;3244;42.708;23.288;2023-08-20T02:13:25;9.48;;;8.10;;
6422;SDS011;3244;42.708;23.288;2023-08-20T02:15:56;8.15;;;7.55;;
6422;SDS011;3244;42.708;23.288;2023-08-20T02:18:23;10.43;;;7.55;;
6422;SDS011;3244;42.708;23.288;2023-08-20T02:20:51;8.98;;;8.10;;
6422;SDS011;3244;42.708;23.288;2023-08-20T02:23:17;8.82;;;7.38;;
6422;SDS011;3244;42.708;23.288;2023-08-20T02:25:44;10.52;;;7.90;;
6422;SDS011;3244;42.708;23.288;2023-08-20T02:28:10;8.73;;;8.02;;
6422;SDS011;3244;42.708;23.288;2023-08-20T02:30:39;9.88;;;8.27;;
6422;SDS011;3244;42.708;23.288;2023-08-20T02:33:05;8.27;;;7.47;;
6422;SDS011;3244;42.708;23.288;2023-08-20T02:35:31;9.90;;;8.30;;
6422;SDS011;3244;42.708;23.288;2023-08-20T02:37:59;8.55;;;7.75;;
6422;SDS011;3244;42.708;23.288;2023-08-20T02:40:26;8.48;;;7.88;;
6422;SDS011;3244;42.708;23.288;2023-08-20T02:42:52;8.95;;;8.07;;
6422;SDS011;3244;42.708;23.288;2023-08-20T02:45:18;9.48;;;8.68;;
6422;SDS011;3244;42.708;23.288;2023-08-20T02:47:45;8.55;;;7.85;;
6422;SDS011;3244;42.708;23.288;2023-08-20T02:50:11;10.63;;;9.05;;
6422;SDS011;3244;42.708;23.288;2023-08-20T02:52:38;14.05;;;8.02;;
6422;SDS011;3244;42.708;23.288;2023-08-20T02:55:06;8.60;;;7.90;;
6422;SDS011;3244;42.708;23.288;2023-08-20T02:57:32;8.25;;;7.40;;
6422;SDS011;3244;42.708;23.288;2023-08-20T02:59:59;11.00;;;8.02;;
6422;SDS011;3244;42.708;23.288;2023-08-20T03:02:25;9.02;;;7.60;;
6422;SDS011;3244;42.708;23.288;2023-08-20T03:04:52;8.48;;;7.70;;
6422;SDS011;3244;42.708;23.288;2023-08-20T03:07:21;15.10;;;7.32;;
6422;SDS011;3244;42.708;23.288;2023-08-20T03:09:47;9.05;;;8.23;;
6422;SDS011;3244;42.708;23.288;2023-08-20T03:12:15;8.88;;;7.38;;
6422;SDS011;3244;42.708;23.288;2023-08-20T03:14:41;7.35;;;6.75;;
6422;SDS011;3244;42.708;23.288;2023-08-20T03:17:08;7.90;;;7.30;;
6422;SDS011;3244;42.708;23.288;2023-08-20T03:19:34;7.82;;;6.88;;
6422;SDS011;3244;42.708;23.288;2023-08-20T03:22:01;8.77;;;8.15;;
6422;SDS011;3244;42.708;23.288;2023-08-20T03:24:27;13.18;;;6.75;;
6422;SDS011;3244;42.708;23.288;2023-08-20T03:26:54;8.30;;;7.45;;
6422;SDS011;3244;42.708;23.288;2023-08-20T03:29:21;7.63;;;7.03;;
6422;SDS011;3244;42.708;23.288;2023-08-20T03:31:48;8.65;;;7.90;;
6422;SDS011;3244;42.708;23.288;2023-08-20T03:34:14;8.43;;;7.63;;
6422;SDS011;3244;42.708;23.288;2023-08-20T03:36:41;7.95;;;7.25;;
6422;SDS011;3244;42.708;23.288;2023-08-20T03:39:07;9.45;;;7.65;;
6422;SDS011;3244;42.708;23.288;2023-08-20T03:41:34;8.93;;;8.02;;
6422;SDS011;3244;42.708;23.288;2023-08-20T03:44:01;8.80;;;8.10;;
6422;SDS011;3244;42.708;23.288;2023-08-20T03:46:30;8.48;;;7.60;;
6422;SDS011;3244;42.708;23.288;2023-08-20T03:48:57;8.70;;;8.00;;
6422;SDS011;3244;42.708;23.288;2023-08-20T03:51:23;7.97;;;7.28;;
6422;SDS011;3244;42.708;23.288;2023-08-20T03:53:49;8.55;;;7.45;;
6422;SDS011;3244;42.708;23.288;2023-08-20T03:56:16;9.02;;;7.80;;
6422;SDS011;3244;42.708;23.288;2023-08-20T03:58:42;8.80;;;7.18;;
6422;SDS011;3244;42.708;23.288;2023-08-20T04:01:09;8.48;;;7.00;;
6422;SDS011;3244;42.708;23.288;2023-08-20T04:03:37;8.07;;;7.40;;
6422;SDS011;3244;42.708;23.288;2023-08-20T04:06:03;8.98;;;8.00;;
6422;SDS011;3244;42.708;23.288;2023-08-20T04:08:30;8.27;;;7.60;;
6422;SDS011;3244;42.708;23.288;2023-08-20T04:10:56;9.00;;;7.95;;
6422;SDS011;3244;42.708;23.288;2023-08-20T04:13:22;9.27;;;7.57;;
6422;SDS011;3244;42.708;23.288;2023-08-20T04:15:49;9.25;;;8.55;;
6422;SDS011;3244;42.708;23.288;2023-08-20T04:18:15;8.57;;;7.88;;
6422;SDS011;3244;42.708;23.288;2023-08-20T04:20:43;11.02;;;8.07;;
6422;SDS011;3244;42.708;23.288;2023-08-20T04:23:10;9.05;;;8.45;;
6422;SDS011;3244;42.708;23.288;2023-08-20T04:25:36;9.00;;;8.40;;
6422;SDS011;3244;42.708;23.288;2023-08-20T04:28:03;9.93;;;8.13;;
6422;SDS011;3244;42.708;23.288;2023-08-20T04:30:29;9.70;;;7.80;;
6422;SDS011;3244;42.708;23.288;2023-08-20T04:32:56;9.15;;;8.35;;
6422;SDS011;3244;42.708;23.288;2023-08-20T04:35:22;9.23;;;8.05;;
6422;SDS011;3244;42.708;23.288;2023-08-20T04:37:50;10.52;;;8.68;;
6422;SDS011;3244;42.708;23.288;2023-08-20T04:40:16;9.23;;;8.30;;
6422;SDS011;3244;42.708;23.288;2023-08-20T04:42:43;9.35;;;8.15;;
6422;SDS011;3244;42.708;23.288;2023-08-20T04:45:09;11.23;;;7.57;;
6422;SDS011;3244;42.708;23.288;2023-08-20T04:47:37;8.25;;;7.75;;
6422;SDS011;3244;42.708;23.288;2023-08-20T04:50:03;7.95;;;7.25;;
6422;SDS011;3244;42.708;23.288;2023-08-20T04:52:31;13.25;;;7.93;;
6422;SDS011;3244;42.708;23.288;2023-08-20T04:54:59;9.25;;;8.40;;
6422;SDS011;3244;42.708;23.288;2023-08-20T04:57:26;10.15;;;8.07;;
6422;SDS011;3244;42.708;23.288;2023-08-20T04:59:52;9.05;;;8.02;;
6422;SDS011;3244;42.708;23.288;2023-08-20T05:02:18;9.20;;;7.60;;
6422;SDS011;3244;42.708;23.288;2023-08-20T05:04:45;13.93;;;7.47;;
6422;SDS011;3244;42.708;23.288;2023-08-20T05:07:11;8.35;;;7.75;;
6422;SDS011;3244;42.708;23.288;2023-08-20T05:09:38;8.52;;;7.68;;
6422;SDS011;3244;42.708;23.288;2023-08-20T05:12:06;8.13;;;7.40;;
6422;SDS011;3244;42.708;23.288;2023-08-20T05:14:33;8.70;;;7.90;;
6422;SDS011;3244;42.708;23.288;2023-08-20T05:16:59;11.82;;;8.38;;
6422;SDS011;3244;42.708;23.288;2023-08-20T05:19:25;12.07;;;8.73;;
6422;SDS011;3244;42.708;23.288;2023-08-20T05:21:52;11.77;;;7.68;;
6422;SDS011;3244;42.708;23.288;2023-08-20T05:24:21;9.63;;;7.05;;
6422;SDS011;3244;42.708;23.288;2023-08-20T05:26:49;9.73;;;7.45;;
6422;SDS011;3244;42.708;23.288;2023-08-20T05:29:17;8.05;;;7.55;;
6422;SDS011;3244;42.708;23.288;2023-08-20T05:31:43;8.32;;;7.53;;
6422;SDS011;3244;42.708;23.288;2023-08-20T05:34:10;7.30;;;6.78;;
6422;SDS011;3244;42.708;23.288;2023-08-20T05:36:36;9.40;;;6.38;;
6422;SDS011;3244;42.708;23.288;2023-08-20T05:39:03;6.93;;;6.47;;
6422;SDS011;3244;42.708;23.288;2023-08-20T05:41:29;8.32;;;6.85;;
6422;SDS011;3244;42.708;23.288;2023-08-20T05:43:56;9.18;;;6.82;;
6422;SDS011;3244;42.708;23.288;2023-08-20T05:46:23;7.35;;;6.53;;
6422;SDS011;3244;42.708;23.288;2023-08-20T05:48:50;11.77;;;6.90;;
6422;SDS011;3244;42.708;23.288;2023-08-20T05:51:16;10.30;;;7.35;;
6422;SDS011;3244;42.708;23.288;2023-08-20T05:53:43;7.93;;;6.45;;
6422;SDS011;3244;42.708;23.288;2023-08-20T05:56:09;13.05;;;7.47;;
6422;SDS011;3244;42.708;23.288;2023-08-20T05:58:36;7.40;;;6.90;;
6422;SDS011;3244;42.708;23.288;2023-08-20T06:01:02;7.43;;;6.93;;
6422;SDS011;3244;42.708;23.288;2023-08-20T06:03:30;7.63;;;7.03;;
6422;SDS011;3244;42.708;23.288;2023-08-20T06:05:56;11.13;;;7.75;;
6422;SDS011;3244;42.708;23.288;2023-08-20T06:08:23;8.32;;;6.88;;
6422;SDS011;3244;42.708;23.288;2023-08-20T06:10:50;7.07;;;6.40;;
6422;SDS011;3244;42.708;23.288;2023-08-20T06:13:17;8.65;;;7.18;;
6422;SDS011;3244;42.708;23.288;2023-08-20T06:15:42;8.52;;;7.72;;
6422;SDS011;3244;42.708;23.288;2023-08-20T06:18:08;11.20;;;7.63;;
6422;SDS011;3244;42.708;23.288;2023-08-20T06:20:36;8.85;;;7.72;;
6422;SDS011;3244;42.708;23.288;2023-08-20T06:23:03;7.38;;;6.82;;
6422;SDS011;3244;42.708;23.288;2023-08-20T06:25:29;9.05;;;6.70;;
6422;SDS011;3244;42.708;23.288;2023-08-20T06:27:56;7.35;;;6.85;;
6422;SDS011;3244;42.708;23.288;2023-08-20T06:30:22;7.20;;;6.63;;
6422;SDS011;3244;42.708;23.288;2023-08-20T06:32:49;8.15;;;7.05;;
6422;SDS011;3244;42.708;23.288;2023-08-20T06:35:15;15.63;;;7.22;;
6422;SDS011;3244;42.708;23.288;2023-08-20T06:37:43;9.00;;;6.60;;
6422;SDS011;3244;42.708;23.288;2023-08-20T06:40:10;6.82;;;6.43;;
6422;SDS011;3244;42.708;23.288;2023-08-20T06:42:36;7.00;;;6.03;;
6422;SDS011;3244;42.708;23.288;2023-08-20T06:45:03;7.10;;;6.50;;
6422;SDS011;3244;42.708;23.288;2023-08-20T06:47:29;6.32;;;5.90;;
6422;SDS011;3244;42.708;23.288;2023-08-20T06:49:56;6.80;;;6.40;;
6422;SDS011;3244;42.708;23.288;2023-08-20T06:52:22;7.30;;;6.70;;
6422;SDS011;3244;42.708;23.288;2023-08-20T06:54:50;8.00;;;7.22;;
6422;SDS011;3244;42.708;23.288;2023-08-20T06:57:16;6.85;;;6.25;;
6422;SDS011;3244;42.708;23.288;2023-08-20T06:59:43;8.50;;;7.07;;
6422;SDS011;3244;42.708;23.288;2023-08-20T07:02:09;9.45;;;6.97;;
6422;SDS011;3244;42.708;23.288;2023-08-20T07:04:36;7.63;;;6.93;;
6422;SDS011;3244;42.708;23.288;2023-08-20T07:07:02;7.05;;;6.60;;
6422;SDS011;3244;42.708;23.288;2023-08-20T07:09:29;7.43;;;6.78;;
6422;SDS011;3244;42.708;23.288;2023-08-20T07:11:57;6.80;;;6.38;;
6422;SDS011;3244;42.708;23.288;2023-08-20T07:14:24;7.05;;;6.45;;
6422;SDS011;3244;42.708;23.288;2023-08-20T07:16:50;7.57;;;6.97;;
6422;SDS011;3244;42.708;23.288;2023-08-20T07:19:17;6.45;;;5.95;;
6422;SDS011;3244;42.708;23.288;2023-08-20T07:21:43;7.10;;;6.45;;
6422;SDS011;3244;42.708;23.288;2023-08-20T07:24:09;9.65;;;7.40;;
6422;SDS011;3244;42.708;23.288;2023-08-20T07:26:36;6.93;;;6.20;;
6422;SDS011;3244;42.708;23.288;2023-08-20T07:29:04;7.20;;;6.10;;
6422;SDS011;3244;42.708;23.288;2023-08-20T07:31:31;5.65;;;5.25;;
6422;SDS011;3244;42.708;23.288;2023-08-20T07:33:58;12.90;;;6.13;;
6422;SDS011;3244;42.708;23.288;2023-08-20T07:36:25;9.52;;;5.97;;
6422;SDS011;3244;42.708;23.288;2023-08-20T07:38:51;6.90;;;5.75;;
6422;SDS011;3244;42.708;23.288;2023-08-20T07:41:19;6.38;;;5.75;;
6422;SDS011;3244;42.708;23.288;2023-08-20T07:43:46;6.20;;;5.60;;
6422;SDS011;3244;42.708;23.288;2023-08-20T07:46:14;5.68;;;5.38;;
6422;SDS011;3244;42.708;23.288;2023-08-20T07:48:40;6.07;;;5.25;;
6422;SDS011;3244;42.708;23.288;2023-08-20T07:51:07;8.70;;;5.78;;
6422;SDS011;3244;42.708;23.288;2023-08-20T07:53:34;6.65;;;6.00;;
6422;SDS011;3244;42.708;23.288;2023-08-20T07:56:00;10.75;;;6.30;;
6422;SDS011;3244;42.708;23.288;2023-08-20T07:58:27;6.38;;;5.97;;
6422;SDS011;3244;42.708;23.288;2023-08-20T08:00:54;7.43;;;6.03;;
6422;SDS011;3244;42.708;23.288;2023-08-20T08:03:22;6.20;;;5.70;;
6422;SDS011;3244;42.708;23.288;2023-08-20T08:05:48;8.38;;;5.70;;
6422;SDS011;3244;42.708;23.288;2023-08-20T08:08:15;10.25;;;6.07;;
6422;SDS011;3244;42.708;23.288;2023-08-20T08:10:41;8.25;;;5.05;;
6422;SDS011;3244;42.708;23.288;2023-08-20T08:13:09;6.32;;;5.55;;
6422;SDS011;3244;42.708;23.288;2023-08-20T08:15:36;7.82;;;5.03;;
6422;SDS011;3244;42.708;23.288;2023-08-20T08:18:02;5.15;;;4.85;;
6422;SDS011;3244;42.708;23.288;2023-08-20T08:20:30;5.85;;;5.45;;
6422;SDS011;3244;42.708;23.288;2023-08-20T08:22:56;5.78;;;4.85;;
6422;SDS011;3244;42.708;23.288;2023-08-20T08:25:23;5.65;;;5.15;;
6422;SDS011;3244;42.708;23.288;2023-08-20T08:27:49;5.10;;;4.70;;
6422;SDS011;3244;42.708;23.288;2023-08-20T08:30:16;5.05;;;4.65;;
6422;SDS011;3244;42.708;23.288;2023-08-20T08:32:42;6.38;;;4.97;;
6422;SDS011;3244;42.708;23.288;2023-08-20T08:35:09;5.20;;;4.72;;
6422;SDS011;3244;42.708;23.288;2023-08-20T08:37:36;4.55;;;4.25;;
6422;SDS011;3244;42.708;23.288;2023-08-20T08:40:03;9.05;;;5.05;;
6422;SDS011;3244;42.708;23.288;2023-08-20T08:42:31;4.78;;;4.47;;
6422;SDS011;3244;42.708;23.288;2023-08-20T08:44:58;7.68;;;4.90;;
6422;SDS011;3244;42.708;23.288;2023-08-20T08:47:25;4.97;;;4.47;;
6422;SDS011;3244;42.708;23.288;2023-08-20T08:49:53;4.85;;;4.55;;
6422;SDS011;3244;42.708;23.288;2023-08-20T08:52:21;6.13;;;4.47;;
6422;SDS011;3244;42.708;23.288;2023-08-20T08:54:49;5.13;;;4.72;;
6422;SDS011;3244;42.708;23.288;2023-08-20T08:57:16;5.63;;;5.18;;
6422;SDS011;3244;42.708;23.288;2023-08-20T08:59:42;5.72;;;5.10;;
6422;SDS011;3244;42.708;23.288;2023-08-20T09:02:09;6.22;;;5.13;;
6422;SDS011;3244;42.708;23.288;2023-08-20T09:04:37;4.13;;;3.75;;
6422;SDS011;3244;42.708;23.288;2023-08-20T09:07:04;4.63;;;4.00;;
6422;SDS011;3244;42.708;23.288;2023-08-20T09:09:30;4.85;;;4.22;;
6422;SDS011;3244;42.708;23.288;2023-08-20T09:11:59;5.88;;;4.35;;
6422;SDS011;3244;42.708;23.288;2023-08-20T09:14:27;4.90;;;4.47;;
6422;SDS011;3244;42.708;23.288;2023-08-20T09:16:54;7.38;;;4.57;;
6422;SDS011;3244;42.708;23.288;2023-08-20T09:19:21;5.45;;;4.65;;
6422;SDS011;3244;42.708;23.288;2023-08-20T09:21:48;6.35;;;5.75;;
6422;SDS011;3244;42.708;23.288;2023-08-20T09:24:18;5.32;;;4.68;;
6422;SDS011;3244;42.708;23.288;2023-08-20T09:26:49;6.93;;;5.40;;
6422;SDS011;3244;42.708;23.288;2023-08-20T09:29:16;6.53;;;6.03;;
6422;SDS011;3244;42.708;23.288;2023-08-20T09:31:43;5.43;;;4.70;;
6422;SDS011;3244;42.708;23.288;2023-08-20T09:34:12;11.88;;;10.80;;
6422;SDS011;3244;42.708;23.288;2023-08-20T09:36:38;5.97;;;5.57;;
6422;SDS011;3244;42.708;23.288;2023-08-20T09:39:05;5.38;;;4.30;;
6422;SDS011;3244;42.708;23.288;2023-08-20T09:41:31;6.57;;;6.03;;
6422;SDS011;3244;42.708;23.288;2023-08-20T09:43:59;4.75;;;4.45;;
6422;SDS011;3244;42.708;23.288;2023-08-20T09:46:30;13.98;;;12.48;;
6422;SDS011;3244;42.708;23.288;2023-08-20T09:48:57;29.95;;;23.52;;
6422;SDS011;3244;42.708;23.288;2023-08-20T09:51:25;15.95;;;12.40;;
6422;SDS011;3244;42.708;23.288;2023-08-20T09:53:53;4.95;;;4.15;;
6422;SDS011;3244;42.708;23.288;2023-08-20T09:56:24;3.20;;;3.00;;
6422;SDS011;3244;42.708;23.288;2023-08-20T09:58:53;4.65;;;4.35;;
6422;SDS011;3244;42.708;23.288;2023-08-20T10:01:19;5.93;;;4.88;;
6422;SDS011;3244;42.708;23.288;2023-08-20T10:03:47;5.07;;;4.45;;
6422;SDS011;3244;42.708;23.288;2023-08-20T10:06:14;4.45;;;4.05;;
6422;SDS011;3244;42.708;23.288;2023-08-20T10:08:41;3.72;;;3.28;;
6422;SDS011;3244;42.708;23.288;2023-08-20T10:11:07;3.83;;;3.63;;
6422;SDS011;3244;42.708;23.288;2023-08-20T10:13:33;3.13;;;2.92;;
6422;SDS011;3244;42.708;23.288;2023-08-20T10:16:00;3.97;;;3.78;;
6422;SDS011;3244;42.708;23.288;2023-08-20T10:18:26;4.28;;;3.05;;
6422;SDS011;3244;42.708;23.288;2023-08-20T10:20:54;3.65;;;3.38;;
6422;SDS011;3244;42.708;23.288;2023-08-20T10:23:22;3.78;;;3.38;;
6422;SDS011;3244;42.708;23.288;2023-08-20T10:25:49;4.25;;;3.85;;
6422;SDS011;3244;42.708;23.288;2023-08-20T10:28:19;6.45;;;5.63;;
6422;SDS011;3244;42.708;23.288;2023-08-20T10:31:05;3.90;;;3.30;;
6422;SDS011;3244;42.708;23.288;2023-08-20T10:33:33;3.00;;;2.83;;
6422;SDS011;3244;42.708;23.288;2023-08-20T10:36:08;3.40;;;3.13;;
6422;SDS011;3244;42.708;23.288;2023-08-20T10:38:35;4.90;;;2.78;;
6422;SDS011;3244;42.708;23.288;2023-08-20T10:41:02;3.53;;;3.33;;
6422;SDS011;3244;42.708;23.288;2023-08-20T10:43:32;3.63;;;3.35;;
6422;SDS011;3244;42.708;23.288;2023-08-20T10:46:05;3.60;;;3.35;;
6422;SDS011;3244;42.708;23.288;2023-08-20T10:48:32;3.67;;;3.47;;
6422;SDS011;3244;42.708;23.288;2023-08-20T10:51:05;4.80;;;3.38;;
6422;SDS011;3244;42.708;23.288;2023-08-20T10:53:33;3.78;;;3.30;;
6422;SDS011;3244;42.708;23.288;2023-08-20T10:56:07;3.03;;;2.83;;
6422;SDS011;3244;42.708;23.288;2023-08-20T10:58:33;3.42;;;3.13;;
6422;SDS011;3244;42.708;23.288;2023-08-20T11:01:12;3.90;;;2.70;;
6422;SDS011;3244;42.708;23.288;2023-08-20T11:03:40;4.20;;;3.15;;
6422;SDS011;3244;42.708;23.288;2023-08-20T11:06:06;3.55;;;3.28;;
6422;SDS011;3244;42.708;23.288;2023-08-20T11:08:34;2.92;;;2.80;;
6422;SDS011;3244;42.708;23.288;2023-08-20T11:11:01;6.50;;;3.55;;
6422;SDS011;3244;42.708;23.288;2023-08-20T11:13:28;3.20;;;3.00;;
6422;SDS011;3244;42.708;23.288;2023-08-20T11:15:54;3.33;;;3.08;;
6422;SDS011;3244;42.708;23.288;2023-08-20T11:18:21;3.75;;;3.45;;
6422;SDS011;3244;42.708;23.288;2023-08-20T11:20:47;2.90;;;2.80;;
6422;SDS011;3244;42.708;23.288;2023-08-20T11:23:14;4.22;;;3.70;;
6422;SDS011;3244;42.708;23.288;2023-08-20T11:25:43;3.47;;;3.28;;
6422;SDS011;3244;42.708;23.288;2023-08-20T11:28:09;3.40;;;3.20;;
6422;SDS011;3244;42.708;23.288;2023-08-20T11:30:36;3.67;;;3.47;;
6422;SDS011;3244;42.708;23.288;2023-08-20T11:33:02;3.42;;;3.13;;
6422;SDS011;3244;42.708;23.288;2023-08-20T11:35:30;5.78;;;3.25;;
6422;SDS011;3244;42.708;23.288;2023-08-20T11:37:57;3.15;;;2.85;;
6422;SDS011;3244;42.708;23.288;2023-08-20T11:40:24;7.30;;;3.85;;
6422;SDS011;3244;42.708;23.288;2023-08-20T11:42:52;5.80;;;3.13;;
6422;SDS011;3244;42.708;23.288;2023-08-20T11:45:18;3.95;;;3.47;;
6422;SDS011;3244;42.708;23.288;2023-08-20T11:47:45;3.00;;;2.80;;
6422;SDS011;3244;42.708;23.288;2023-08-20T11:50:12;3.17;;;2.97;;
6422;SDS011;3244;42.708;23.288;2023-08-20T11:52:38;2.63;;;2.42;;
6422;SDS011;3244;42.708;23.288;2023-08-20T11:55:05;4.55;;;3.20;;
6422;SDS011;3244;42.708;23.288;2023-08-20T11:57:32;3.13;;;2.92;;
6422;SDS011;3244;42.708;23.288;2023-08-20T12:00:01;3.47;;;3.28;;
6422;SDS011;3244;42.708;23.288;2023-08-20T12:02:30;5.00;;;3.92;;
6422;SDS011;3244;42.708;23.288;2023-08-20T12:04:56;3.60;;;3.30;;
6422;SDS011;3244;42.708;23.288;2023-08-20T12:07:24;3.75;;;3.10;;
6422;SDS011;3244;42.708;23.288;2023-08-20T12:09:51;4.78;;;3.60;;
6422;SDS011;3244;42.708;23.288;2023-08-20T12:12:18;3.20;;;3.00;;
6422;SDS011;3244;42.708;23.288;2023-08-20T12:14:45;3.30;;;3.00;;
6422;SDS011;3244;42.708;23.288;2023-08-20T12:17:16;3.22;;;2.92;;
6422;SDS011;3244;42.708;23.288;2023-08-20T12:19:42;4.13;;;2.85;;
6422;SDS011;3244;42.708;23.288;2023-08-20T12:22:09;3.22;;;3.03;;
6422;SDS011;3244;42.708;23.288;2023-08-20T12:24:35;3.45;;;3.25;;
6422;SDS011;3244;42.708;23.288;2023-08-20T12:27:02;4.32;;;4.00;;
6422;SDS011;3244;42.708;23.288;2023-08-20T12:29:28;3.75;;;3.45;;
6422;SDS011;3244;42.708;23.288;2023-08-20T12:31:55;3.67;;;3.38;;
6422;SDS011;3244;42.708;23.288;2023-08-20T12:34:23;4.35;;;4.05;;
6422;SDS011;3244;42.708;23.288;2023-08-20T12:36:51;3.17;;;2.97;;
6422;SDS011;3244;42.708;23.288;2023-08-20T12:39:17;5.05;;;3.70;;
6422;SDS011;3244;42.708;23.288;2023-08-20T12:41:44;3.05;;;2.90;;
6422;SDS011;3244;42.708;23.288;2023-08-20T12:44:10;3.42;;;3.22;;
6422;SDS011;3244;42.708;23.288;2023-08-20T12:46:38;3.67;;;3.30;;
6422;SDS011;3244;42.708;23.288;2023-08-20T12:49:04;4.15;;;3.72;;
6422;SDS011;3244;42.708;23.288;2023-08-20T12:51:32;4.25;;;3.80;;
6422;SDS011;3244;42.708;23.288;2023-08-20T12:53:59;3.25;;;2.92;;
6422;SDS011;3244;42.708;23.288;2023-08-20T12:56:26;3.35;;;3.15;;
6422;SDS011;3244;42.708;23.288;2023-08-20T12:58:52;7.57;;;3.78;;
6422;SDS011;3244;42.708;23.288;2023-08-20T13:01:18;5.45;;;3.35;;
6422;SDS011;3244;42.708;23.288;2023-08-20T13:03:45;3.50;;;3.30;;
6422;SDS011;3244;42.708;23.288;2023-08-20T13:06:12;3.97;;;3.78;;
6422;SDS011;3244;42.708;23.288;2023-08-20T13:08:40;3.50;;;3.30;;
6422;SDS011;3244;42.708;23.288;2023-08-20T13:11:07;4.43;;;3.30;;
6422;SDS011;3244;42.708;23.288;2023-08-20T13:13:36;6.68;;;3.90;;
6422;SDS011;3244;42.708;23.288;2023-08-20T13:16:02;3.60;;;3.30;;
6422;SDS011;3244;42.708;23.288;2023-08-20T13:18:29;5.82;;;3.78;;
6422;SDS011;3244;42.708;23.288;2023-08-20T13:20:56;3.63;;;3.30;;
6422;SDS011;3244;42.708;23.288;2023-08-20T13:23:22;3.30;;;2.97;;
6422;SDS011;3244;42.708;23.288;2023-08-20T13:25:51;3.47;;;3.28;;
6422;SDS011;3244;42.708;23.288;2023-08-20T13:28:17;4.35;;;4.00;;
6422;SDS011;3244;42.708;23.288;2023-08-20T13:30:44;3.60;;;3.30;;
6422;SDS011;3244;42.708;23.288;2023-08-20T13:33:10;3.63;;;3.42;;
6422;SDS011;3244;42.708;23.288;2023-08-20T13:35:37;3.58;;;3.15;;
6422;SDS011;3244;42.708;23.288;2023-08-20T13:38:03;4.13;;;3.78;;
6422;SDS011;3244;42.708;23.288;2023-08-20T13:40:30;3.95;;;3.55;;
6422;SDS011;3244;42.708;23.288;2023-08-20T13:42:58;3.85;;;3.65;;
6422;SDS011;3244;42.708;23.288;2023-08-20T13:45:24;4.07;;;3.30;;
6422;SDS011;3244;42.708;23.288;2023-08-20T13:47:51;4.35;;;3.20;;
6422;SDS011;3244;42.708;23.288;2023-08-20T13:50:17;4.72;;;3.60;;
6422;SDS011;3244;42.708;23.288;2023-08-20T13:52:44;3.97;;;3.55;;
6422;SDS011;3244;42.708;23.288;2023-08-20T13:55:10;3.22;;;3.03;;
6422;SDS011;3244;42.708;23.288;2023-08-20T13:57:37;3.58;;;3.38;;
6422;SDS011;3244;42.708;23.288;2023-08-20T14:00:06;4.30;;;3.95;;
6422;SDS011;3244;42.708;23.288;2023-08-20T14:02:34;3.55;;;3.35;;
6422;SDS011;3244;42.708;23.288;2023-08-20T14:05:01;5.75;;;3.47;;
6422;SDS011;3244;42.708;23.288;2023-08-20T14:07:29;3.67;;;3.47;;
6422;SDS011;3244;42.708;23.288;2023-08-20T14:09:55;3.25;;;3.05;;
6422;SDS011;3244;42.708;23.288;2023-08-20T14:12:22;4.00;;;2.95;;
6422;SDS011;3244;42.708;23.288;2023-08-20T14:14:48;3.33;;;3.13;;
6422;SDS011;3244;42.708;23.288;2023-08-20T14:17:16;3.47;;;3.17;;
6422;SDS011;3244;42.708;23.288;2023-08-20T14:19:43;3.05;;;2.88;;
6422;SDS011;3244;42.708;23.288;2023-08-20T14:22:09;3.38;;;3.17;;
6422;SDS011;3244;42.708;23.288;2023-08-20T14:24:36;7.53;;;3.25;;
6422;SDS011;3244;42.708;23.288;2023-08-20T14:27:02;3.15;;;2.95;;
6422;SDS011;3244;42.708;23.288;2023-08-20T14:29:29;2.85;;;2.67;;
6422;SDS011;3244;42.708;23.288;2023-08-20T14:31:55;4.18;;;3.85;;
6422;SDS011;3244;42.708;23.288;2023-08-20T14:34:23;4.60;;;3.53;;
6422;SDS011;3244;42.708;23.288;2023-08-20T14:36:50;3.17;;;2.95;;
6422;SDS011;3244;42.708;23.288;2023-08-20T14:39:16;4.00;;;3.30;;
6422;SDS011;3244;42.708;23.288;2023-08-20T14:41:42;4.10;;;3.55;;
6422;SDS011;3244;42.708;23.288;2023-08-20T14:44:09;3.47;;;3.28;;
6422;SDS011;3244;42.708;23.288;2023-08-20T14:46:35;3.70;;;3.50;;
6422;SDS011;3244;42.708;23.288;2023-08-20T14:49:03;6.20;;;3.80;;
6422;SDS011;3244;42.708;23.288;2023-08-20T14:51:31;5.43;;;3.95;;
6422;SDS011;3244;42.708;23.288;2023-08-20T14:53:59;3.80;;;3.60;;
6422;SDS011;3244;42.708;23.288;2023-08-20T14:56:25;3.63;;;3.42;;
6422;SDS011;3244;42.708;23.288;2023-08-20T14:58:52;3.63;;;3.42;;
6422;SDS011;3244;42.708;23.288;2023-08-20T15:01:18;5.20;;;3.28;;